Sunday, December 21, 2014
16:33 UTC
  |  Log In   |  Register Free
Airport Search:

Heart Of Georgia Regional Airport
(KEZM)

FAA data valid effective November 13, 2014 - January 08, 2015 (unless otherwise noted).

 
 
 
 
 
 
 
 
 
 
 
 
 
 

Current Aviation Weather for Heart Of Georgia Regional Airport (KEZM)

The most recent METAR observation for KEZM was updated at: 2113
METAR Summary (Translated METAR)
KEZM
182055Z AUTO 23003KT 10SM CLR 18/00 A3011 RMK AO2 T01830000
KDBN
182055Z AUTO 24003KT 10SM SCT110 17/00 A3010 RMK AO2
(22.1 nm NE from KEZM)
KAZE
182055Z AUTO 00000KT 10SM CLR 19/01 A3007 RMK AO2 T01940009
(31.6 nm SE from KEZM)
TAF
No TAF information found within 50 nm of KEZM
  Airport Weather Conditions for KEZM

 Current Weather at EZM
51° F
Overcast
East winds at 5.8 mph
EZM NOAA Radar

Pressure: 30.22 in
Humidity: 100%
Wind: East at 5.8 MPH (5 KT)
Dew Point: 50.5°F
Visibility: 10.00 mi


Airport Weather Forecast for KEZM

Translated METAR and TAF for KEZM
Translated METAR for KEZM (1634 UTC 21 December 2014)
found at http://aviationweather.gov/adds/metars/
 
METAR text: KEZM 211615Z AUTO 06005KT 10SM OVC008 10/10 A3022 RMK AO2 T01040104
Conditions at: KEZM (EASTMAN , GA, US) observed 1615 UTC 21 December 2014
Temperature: 10.4°C (51°F)
Dewpoint: 10.4°C (51°F) [RH = 100%]
Pressure (altimeter): 30.22 inches Hg (1023.5 mb)
Winds: from the ENE (60 degrees) at 6 MPH (5 knots; 2.6 m/s)
Visibility: 10 or more miles (16+ km)
Ceiling: 800 feet AGL
Clouds: overcast cloud deck at 800 feet AGL
Weather: automated observation with no human augmentation;
there may or may not be significant weather present at this time
Translated TAF for KEZM

There is no translated TAF available for this airport

Find All Airport Services Find A Hotel Find A Rental Car Find A Golf Course Find A Restaurant $100 Hamburger



FBO's on the Field
FBO Company Facility Photos Services Transportation Aviation Fuel Prices: Prices include tax
Catering Weather Repair Courtesy Rental Type 100LL JetA JetA+ MOGAS 8087
 
Heart of Georgia Regional Airport

This FBO has not yet been rated
FS:Phillips 66
Last Updated: Nov-25
Login to update fuel prices
SS:
Contact Heart of Georgia Regional AirportMore FBO Information
 
Add another FBO Facility Photos Catering Weather Repair Courtesy Rental Type 100LL JetA JetA+ MOGAS 8087
Services Transportation Aviation Fuel Prices: Prices include tax


model-print
model-print
model-print
model-print